Time;durP1;ratioP1;P1;durP2;ratioP2;P2;SDS_P1;SDS_P2;PMS_P1;PMS_P2;Temp;Humidity;BMP_temperature;BMP_pressure;BME280_temperature;BME280_humidity;BME280_pressure;Samples;Min_cycle;Max_cycle;Signal;HPM_P1;HPM_P2
2022/03/04 00:00:46;;;;;;;56.60;27.53;;;;;;;3.04;83.11;96422.25;5093500;28;20801;-37
2022/03/04 00:03:13;;;;;;;46.53;22.70;;;;;;;3.05;82.77;96426.50;5093742;28;20491;-37
2022/03/04 00:05:41;;;;;;;77.67;29.80;;;;;;;3.07;82.50;96424.47;5093503;28;20439;-36
2022/03/04 00:08:09;;;;;;;105.23;36.90;;;;;;;3.09;82.07;96419.84;5093561;28;20443;-39
2022/03/04 00:10:37;;;;;;;98.00;38.20;;;;;;;3.09;81.56;96419.84;5093490;28;20442;-37
2022/03/04 00:13:04;;;;;;;112.80;38.70;;;;;;;3.09;80.61;96417.22;5093408;28;20447;-36
2022/03/04 00:15:34;;;;;;;93.30;37.13;;;;;;;3.05;80.24;96418.63;5093387;28;20438;-36
2022/03/04 00:18:01;;;;;;;86.10;30.03;;;;;;;2.99;80.37;96422.03;5093383;28;20446;-36
2022/03/04 00:20:29;;;;;;;63.37;28.60;;;;;;;2.96;80.18;96422.44;5093383;28;20834;-36
2022/03/04 00:22:56;;;;;;;56.80;25.90;;;;;;;2.93;80.31;96418.41;5093177;28;20495;-37
2022/03/04 00:25:23;;;;;;;57.13;26.83;;;;;;;2.92;80.38;96416.78;5093352;28;20967;-36
2022/03/04 00:27:51;;;;;;;33.33;17.70;;;;;;;2.93;80.08;96420.22;5093235;28;20450;-37
2022/03/04 00:30:18;;;;;;;50.20;21.83;;;;;;;2.87;79.45;96422.59;5094120;28;20451;-36
2022/03/04 00:32:47;;;;;;;43.13;22.60;;;;;;;2.71;80.15;96381.03;5093273;28;20449;-36
2022/03/04 00:35:14;;;;;;;49.00;22.50;;;;;;;2.82;80.51;96409.28;5093176;28;20451;-37
2022/03/04 00:37:42;;;;;;;55.17;24.57;;;;;;;2.81;81.03;96405.03;5093604;28;20438;-36
2022/03/04 00:40:10;;;;;;;64.90;28.43;;;;;;;2.81;80.99;96393.75;5093210;28;20517;-36
2022/03/04 00:42:38;;;;;;;67.27;33.20;;;;;;;2.80;81.45;96400.81;5093445;28;20494;-36
2022/03/04 00:45:06;;;;;;;94.57;34.07;;;;;;;2.77;81.74;96393.31;5093187;28;20957;-36
2022/03/04 00:47:33;;;;;;;104.67;45.23;;;;;;;2.76;81.72;96386.47;5093363;28;20461;-36
2022/03/04 00:50:02;;;;;;;112.50;38.50;;;;;;;2.77;81.27;96387.28;5093607;28;20465;-36
2022/03/04 00:52:29;;;;;;;72.60;28.93;;;;;;;2.74;81.07;96393.72;5096914;28;20521;-36
2022/03/04 00:54:56;;;;;;;64.80;26.83;;;;;;;2.73;80.91;96386.88;5097266;28;20441;-36
2022/03/04 00:57:24;;;;;;;68.73;26.17;;;;;;;2.73;80.68;96386.88;5097096;28;20443;-36
2022/03/04 00:59:51;;;;;;;82.23;26.43;;;;;;;2.74;80.89;96390.31;5096824;28;20438;-36
2022/03/04 01:02:19;;;;;;;50.17;26.33;;;;;;;2.71;81.20;96388.88;5096956;28;20483;-36
2022/03/04 01:04:46;;;;;;;74.53;27.23;;;;;;;2.68;81.55;96386.63;5096610;28;20960;-36
2022/03/04 01:07:14;;;;;;;59.77;24.33;;;;;;;2.65;81.89;96389.66;5097498;28;20441;-36
2022/03/04 01:09:42;;;;;;;49.47;21.50;;;;;;;2.60;81.47;96378.94;5096595;28;20439;-36
2022/03/04 01:12:10;;;;;;;35.23;17.47;;;;;;;2.60;81.10;96386.81;5096859;28;20435;-36
2022/03/04 01:14:37;;;;;;;39.17;19.53;;;;;;;2.55;80.65;96381.34;5096569;28;20439;-36
2022/03/04 01:17:05;;;;;;;49.50;19.57;;;;;;;2.55;80.88;96378.72;5096466;28;20449;-36
2022/03/04 01:19:32;;;;;;;35.53;15.83;;;;;;;2.53;81.31;96380.75;5096779;28;20872;-37
2022/03/04 01:21:59;;;;;;;37.87;17.50;;;;;;;2.42;81.40;96361.94;5096238;28;20915;-37
2022/03/04 01:24:28;;;;;;;56.30;23.27;;;;;;;2.45;81.78;96358.94;5096324;28;20439;-36
2022/03/04 01:26:55;;;;;;;51.83;20.70;;;;;;;2.46;81.75;96365.00;5096212;28;20438;-37
2022/03/04 01:29:22;;;;;;;62.23;28.40;;;;;;;2.45;81.45;96363.34;5096545;28;20439;-36
2022/03/04 01:31:49;;;;;;;60.30;27.70;;;;;;;2.44;81.23;96374.84;5096185;28;20446;-37
2022/03/04 01:34:16;;;;;;;53.00;22.00;;;;;;;2.40;80.75;96373.63;5096145;28;20446;-37
2022/03/04 01:36:44;;;;;;;44.67;22.03;;;;;;;2.34;80.52;96367.34;5096480;28;20439;-37
2022/03/04 01:39:11;;;;;;;47.23;22.50;;;;;;;2.32;81.42;96368.53;5096049;28;20446;-36
2022/03/04 01:41:40;;;;;;;41.47;18.03;;;;;;;2.30;81.22;96370.53;5096003;28;20443;-37
2022/03/04 01:44:07;;;;;;;37.60;18.10;;;;;;;2.26;81.26;96380.63;5096278;28;20486;-37
2022/03/04 01:46:34;;;;;;;36.80;18.03;;;;;;;2.25;81.37;96377.16;5096217;28;20443;-37
2022/03/04 01:49:02;;;;;;;39.57;15.67;;;;;;;2.23;80.94;96373.13;5096199;28;20474;-36
2022/03/04 01:51:29;;;;;;;31.80;13.30;;;;;;;2.22;81.17;96372.34;5095669;28;20470;-37
2022/03/04 01:53:56;;;;;;;31.37;15.03;;;;;;;2.19;81.11;96364.84;5095795;28;20446;-37
2022/03/04 01:56:24;;;;;;;29.23;17.63;;;;;;;2.16;81.32;96367.06;5095692;28;20449;-36
2022/03/04 01:58:53;;;;;;;39.47;19.30;;;;;;;2.02;81.42;96347.84;5095663;28;20443;-37
2022/03/04 02:01:20;;;;;;;35.47;16.40;;;;;;;2.12;81.73;96368.44;5095114;28;20447;-37
2022/03/04 02:03:48;;;;;;;54.30;23.07;;;;;;;2.11;81.23;96377.28;5095434;28;20496;-37
2022/03/04 02:06:15;;;;;;;65.00;29.00;;;;;;;2.05;81.54;96366.59;5095566;28;20447;-36
2022/03/04 02:08:43;;;;;;;55.40;23.53;;;;;;;1.88;81.62;96357.44;5095422;28;20445;-37
2022/03/04 02:11:10;;;;;;;39.43;20.90;;;;;;;2.01;81.92;96367.97;5096302;28;20496;-37
2022/03/04 02:13:39;;;;;;;47.07;20.60;;;;;;;2.03;81.87;96375.66;5095336;28;20931;-37
2022/03/04 02:16:14;;;;;;;33.83;16.87;;;;;;;2.02;81.78;96369.63;5095359;28;20447;-38
2022/03/04 02:18:42;;;;;;;37.10;15.07;;;;;;;2.04;81.74;96372.84;5095303;28;20563;-37
2022/03/04 02:21:11;;;;;;;24.27;11.80;;;;;;;2.05;81.64;96366.59;5095236;28;20439;-37
2022/03/04 02:23:39;;;;;;;16.67;9.33;;;;;;;2.10;82.26;96368.63;5095149;28;20583;-37
2022/03/04 02:26:07;;;;;;;17.53;10.47;;;;;;;2.11;82.36;96366.81;5095064;28;20942;-37
2022/03/04 02:28:34;;;;;;;18.60;10.10;;;;;;;2.02;81.88;96351.28;5095081;28;20453;-36
2022/03/04 02:31:01;;;;;;;15.53;9.80;;;;;;;2.12;81.32;96365.81;5095032;28;20445;-37
2022/03/04 02:33:29;;;;;;;23.43;13.73;;;;;;;2.09;80.50;96371.44;5095281;28;20454;-36
2022/03/04 02:35:56;;;;;;;32.30;15.67;;;;;;;2.06;80.28;96359.53;5094983;28;20449;-37
2022/03/04 02:38:24;;;;;;;34.13;15.73;;;;;;;2.01;80.53;96370.59;5094923;28;20443;-36
2022/03/04 02:40:53;;;;;;;37.10;17.60;;;;;;;1.98;80.71;96371.00;5094857;28;20439;-36
2022/03/04 02:43:20;;;;;;;37.20;17.00;;;;;;;1.91;80.88;96369.31;5094749;28;20482;-36
2022/03/04 02:45:47;;;;;;;41.57;18.83;;;;;;;1.79;81.39;96355.97;5095055;28;20444;-36
2022/03/04 02:48:14;;;;;;;34.57;17.33;;;;;;;1.88;81.87;96367.91;5094670;28;20922;-37
2022/03/04 02:50:42;;;;;;;40.90;17.00;;;;;;;1.87;81.70;96366.28;5094731;28;20478;-36
2022/03/04 02:53:09;;;;;;;43.87;19.17;;;;;;;1.88;82.14;96365.28;5094940;28;20471;-37
2022/03/04 02:55:36;;;;;;;36.37;14.90;;;;;;;1.88;81.70;96372.34;5094524;28;20442;-37
2022/03/04 02:58:05;;;;;;;32.87;14.00;;;;;;;1.72;81.36;96352.47;5094823;28;20803;-39
2022/03/04 03:00:32;;;;;;;32.07;14.47;;;;;;;1.83;81.18;96373.72;5094747;28;20945;-37
2022/03/04 03:03:00;;;;;;;32.90;13.90;;;;;;;1.83;81.30;96360.63;5094656;28;20981;-36
2022/03/04 03:05:27;;;;;;;27.33;13.80;;;;;;;1.73;81.62;96354.13;5094411;28;20521;-37
2022/03/04 03:07:55;;;;;;;20.60;13.67;;;;;;;1.81;81.46;96360.00;5094385;28;20531;-37
2022/03/04 03:10:22;;;;;;;28.97;14.33;;;;;;;1.80;81.77;96365.44;5094354;28;20514;-37
2022/03/04 03:12:49;;;;;;;28.17;16.23;;;;;;;1.78;81.66;96367.44;5093520;28;20446;-37
2022/03/04 03:15:18;;;;;;;33.83;15.20;;;;;;;1.75;81.78;96367.81;5094229;28;20922;-38
2022/03/04 03:17:46;;;;;;;35.83;18.00;;;;;;;1.59;81.75;96343.56;5094169;28;20486;-37
2022/03/04 03:20:13;;;;;;;29.90;13.60;;;;;;;1.72;81.57;96373.41;5094440;28;20446;-37
2022/03/04 03:22:40;;;;;;;26.30;14.03;;;;;;;1.73;81.27;96370.63;5094037;28;20486;-37
2022/03/04 03:25:09;;;;;;;24.33;13.50;;;;;;;1.73;81.37;96361.97;5094107;28;20445;-37
2022/03/04 03:27:36;;;;;;;23.23;11.73;;;;;;;1.71;81.02;96362.16;5094055;28;20447;-37
2022/03/04 03:30:06;;;;;;;25.60;14.00;;;;;;;1.70;80.98;96370.19;5093999;28;20447;-37
2022/03/04 03:32:34;;;;;;;21.77;10.40;;;;;;;1.58;81.30;96347.16;5093978;28;20447;-38
2022/03/04 03:35:02;;;;;;;20.67;12.50;;;;;;;1.49;80.83;96342.28;5094196;28;20930;-37
2022/03/04 03:37:29;;;;;;;33.07;14.43;;;;;;;1.61;80.91;96378.19;5094113;28;20552;-37
2022/03/04 03:39:56;;;;;;;27.77;14.23;;;;;;;1.57;81.13;96366.50;5093789;28;20439;-41
2022/03/04 03:42:23;;;;;;;23.20;13.97;;;;;;;1.56;81.75;96370.09;5093696;28;20948;-37
2022/03/04 03:44:51;;;;;;;27.50;13.50;;;;;;;1.55;81.55;96360.63;5094357;28;20449;-37
2022/03/04 03:47:18;;;;;;;27.77;14.57;;;;;;;1.52;81.73;96361.00;5093986;28;20439;-36
2022/03/04 03:49:46;;;;;;;35.30;16.70;;;;;;;1.52;81.90;96366.22;5093643;28;20938;-37
2022/03/04 03:52:14;;;;;;;42.20;17.67;;;;;;;1.53;81.76;96367.88;5093396;28;20539;-36
2022/03/04 03:54:41;;;;;;;37.10;18.63;;;;;;;1.52;81.71;96360.19;5093637;28;20930;-36
2022/03/04 03:57:10;;;;;;;36.00;17.67;;;;;;;1.51;81.75;96362.00;5093617;28;20449;-36
2022/03/04 03:59:37;;;;;;;39.10;17.80;;;;;;;1.42;81.78;96363.94;5093582;28;20479;-37
2022/03/04 04:02:05;;;;;;;59.70;26.03;;;;;;;1.37;81.33;96368.94;5093449;28;20949;-36
2022/03/04 04:04:34;;;;;;;53.00;21.70;;;;;;;1.34;80.64;96360.66;5085614;28;20578;-36
2022/03/04 04:07:05;;;;;;;36.83;15.70;;;;;;;1.31;81.43;96361.03;5091649;28;20908;-36
2022/03/04 04:09:32;;;;;;;30.83;14.80;;;;;;;1.29;81.00;96360.41;5073519;28;20447;-36
2022/03/04 04:12:00;;;;;;;28.67;15.63;;;;;;;1.26;81.02;96358.97;5073519;28;20444;-36
2022/03/04 04:14:28;;;;;;;37.83;15.30;;;;;;;1.28;81.11;96358.78;5073539;28;20451;-38
2022/03/04 04:16:56;;;;;;;34.87;17.63;;;;;;;1.28;81.02;96362.22;5073478;28;20448;-36
2022/03/04 04:19:24;;;;;;;31.30;14.30;;;;;;;1.25;81.66;96353.94;5073231;28;20443;-36
2022/03/04 04:21:52;;;;;;;26.10;14.00;;;;;;;1.29;81.71;96366.47;5073419;28;20916;-37
2022/03/04 04:24:21;;;;;;;30.63;13.97;;;;;;;1.30;81.82;96354.19;5073994;28;20499;-37
2022/03/04 04:26:48;;;;;;;28.93;14.67;;;;;;;1.31;81.58;96361.03;5077131;28;20446;-36
2022/03/04 04:29:15;;;;;;;24.03;11.60;;;;;;;1.31;81.58;96361.84;5077156;28;20931;-36
2022/03/04 04:31:42;;;;;;;22.87;12.27;;;;;;;1.29;81.43;96358.63;5077117;28;20443;-37
2022/03/04 04:34:10;;;;;;;18.17;12.67;;;;;;;1.31;81.42;96361.84;5077250;28;20953;-37
2022/03/04 04:36:37;;;;;;;27.50;12.57;;;;;;;1.32;81.73;96367.88;5077032;28;20440;-35
2022/03/04 04:39:04;;;;;;;29.27;10.70;;;;;;;1.32;81.48;96365.28;5076953;28;20439;-36
2022/03/04 04:41:34;;;;;;;23.07;11.73;;;;;;;1.32;81.95;96376.53;5076913;28;20931;-36
2022/03/04 04:44:01;;;;;;;21.97;12.50;;;;;;;1.30;81.72;96362.03;5076852;28;20498;-37
2022/03/04 04:46:29;;;;;;;25.00;14.63;;;;;;;1.33;82.01;96366.88;5076811;28;20814;-37
2022/03/04 04:48:56;;;;;;;37.93;14.87;;;;;;;1.32;82.13;96365.28;5076784;28;20443;-36
2022/03/04 04:51:23;;;;;;;28.73;15.37;;;;;;;1.38;81.60;96377.59;5076564;28;21002;-36
2022/03/04 04:53:52;;;;;;;37.70;19.37;;;;;;;1.39;81.81;96381.81;5076980;28;20522;-36
2022/03/04 04:56:19;;;;;;;34.20;14.90;;;;;;;1.37;81.80;96383.81;5076863;28;20872;-36
2022/03/04 04:58:48;;;;;;;58.10;21.20;;;;;;;1.41;81.43;96387.69;5076597;28;20482;-36
2022/03/04 05:01:16;;;;;;;82.17;41.27;;;;;;;1.41;81.88;96380.63;5076504;28;20440;-36
2022/03/04 05:03:44;;;;;;;74.60;32.97;;;;;;;1.39;80.42;96389.66;5076362;28;20487;-36
2022/03/04 05:06:11;;;;;;;77.07;36.87;;;;;;;1.34;80.94;96386.81;5076497;28;20439;-37
2022/03/04 05:08:41;;;;;;;69.37;35.03;;;;;;;1.33;81.49;96379.97;5076925;28;20451;-36
2022/03/04 05:11:09;;;;;;;52.37;26.80;;;;;;;1.38;81.76;96382.84;5076727;28;20428;-36
2022/03/04 05:13:36;;;;;;;60.37;30.40;;;;;;;1.34;81.95;96365.91;5076249;28;20993;-37
2022/03/04 05:16:05;;;;;;;34.00;19.47;;;;;;;1.53;82.08;96380.94;5082944;28;20443;-38
2022/03/04 05:18:32;;;;;;;33.73;18.23;;;;;;;1.62;81.64;96389.47;5090504;28;20451;-37
2022/03/04 05:20:59;;;;;;;30.37;17.40;;;;;;;1.54;80.63;96366.84;5076328;28;20435;-37
2022/03/04 05:26:11;;;;;;;26.03;14.20;;;;;;;1.85;79.95;96394.47;5076166;28;20489;-36
2022/03/04 05:28:39;;;;;;;25.83;15.73;;;;;;;1.90;79.58;96388.66;5075972;28;20444;-37
2022/03/04 05:31:07;;;;;;;24.23;13.37;;;;;;;1.97;80.19;96394.75;5076252;28;20448;-37
2022/03/04 05:33:34;;;;;;;23.53;12.90;;;;;;;1.98;80.10;96388.50;5076246;28;20809;-37
2022/03/04 05:36:02;;;;;;;27.63;15.20;;;;;;;2.14;79.71;96405.72;5075021;28;20536;-37
2022/03/04 05:38:29;;;;;;;26.50;15.53;;;;;;;2.21;79.37;96394.28;5075801;28;20455;-36
2022/03/04 05:40:56;;;;;;;27.63;14.47;;;;;;;2.28;78.98;96394.34;5075702;28;20454;-37
2022/03/04 05:43:23;;;;;;;29.53;15.57;;;;;;;2.36;78.96;96386.28;5075578;28;20615;-37
2022/03/04 05:45:51;;;;;;;23.23;14.10;;;;;;;2.48;78.62;96393.63;5075570;28;20448;-36
2022/03/04 05:48:20;;;;;;;27.37;13.10;;;;;;;2.62;78.16;96395.28;5075540;28;20784;-37
2022/03/04 05:50:47;;;;;;;20.23;12.77;;;;;;;2.75;77.94;96400.56;5075321;28;20476;-37
2022/03/04 05:53:15;;;;;;;21.47;11.23;;;;;;;2.87;78.03;96398.19;5075443;28;20991;-36
2022/03/04 05:55:42;;;;;;;28.00;13.07;;;;;;;3.00;77.62;96403.47;5075757;28;20477;-36
2022/03/04 05:58:10;;;;;;;25.43;12.30;;;;;;;3.13;77.16;96397.47;5075450;28;20454;-36
2022/03/04 06:00:37;;;;;;;26.80;13.27;;;;;;;3.26;76.75;96402.72;5075745;28;20505;-36
2022/03/04 06:03:04;;;;;;;95.03;37.43;;;;;;;3.56;75.46;96401.56;5075323;28;20962;-37
2022/03/04 06:05:33;;;;;;;105.57;43.40;;;;;;;3.85;74.42;96411.66;5075260;28;20448;-37
2022/03/04 06:08:01;;;;;;;105.60;46.83;;;;;;;4.00;73.29;96397.50;5075487;28;20792;-37
2022/03/04 06:10:28;;;;;;;89.30;44.57;;;;;;;4.28;71.95;96415.63;5075185;28;20436;-36
2022/03/04 06:12:55;;;;;;;112.73;51.33;;;;;;;4.36;71.17;96415.41;5075106;28;20829;-36
2022/03/04 06:15:23;;;;;;;88.13;40.83;;;;;;;4.39;70.58;96417.66;5075343;28;20924;-39
2022/03/04 06:17:51;;;;;;;80.30;44.20;;;;;;;4.41;70.34;96425.31;5075255;28;20440;-36
2022/03/04 06:20:19;;;;;;;93.90;46.37;;;;;;;4.61;69.42;96420.03;5075280;28;20845;-37
2022/03/04 06:22:48;;;;;;;104.43;49.50;;;;;;;5.03;67.71;96420.44;5074852;28;20451;-37
2022/03/04 06:25:16;;;;;;;83.23;44.57;;;;;;;5.21;66.18;96393.44;5074832;28;20574;-37
2022/03/04 06:27:53;;;;;;;79.20;40.20;;;;;;;5.40;64.89;96413.56;5074804;28;20976;-38
2022/03/04 06:30:21;;;;;;;65.93;34.20;;;;;;;5.37;62.26;96418.44;5075039;28;20485;-38
2022/03/04 06:32:48;;;;;;;50.60;28.90;;;;;;;5.28;62.54;96410.78;5074706;28;20436;-38
2022/03/04 06:35:16;;;;;;;36.47;21.23;;;;;;;5.27;62.36;96419.72;5074703;28;20444;-37
2022/03/04 06:37:43;;;;;;;31.67;18.47;;;;;;;5.29;61.46;96416.84;5074666;28;20440;-38
2022/03/04 06:40:13;;;;;;;36.33;20.00;;;;;;;5.21;61.41;96423.19;5074295;28;20919;-38
2022/03/04 06:42:42;;;;;;;43.03;22.57;;;;;;;5.13;62.37;96418.16;5074497;28;20444;-39
2022/03/04 06:45:10;;;;;;;28.53;18.40;;;;;;;5.09;62.09;96414.34;5074407;28;20575;-38
2022/03/04 06:47:37;;;;;;;49.20;26.70;;;;;;;5.10;63.42;96418.59;5074456;28;20454;-38
2022/03/04 06:50:05;;;;;;;43.43;22.30;;;;;;;5.07;64.97;96421.63;5074453;28;20448;-37
2022/03/04 06:52:32;;;;;;;76.83;35.83;;;;;;;5.07;65.96;96419.81;5074745;28;20428;-38
2022/03/04 06:55:00;;;;;;;67.03;34.70;;;;;;;5.01;65.86;96417.22;5074269;28;20455;-38
2022/03/04 06:57:28;;;;;;;49.10;27.53;;;;;;;5.02;66.24;96421.47;5073891;28;20440;-38
2022/03/04 06:59:55;;;;;;;45.03;27.40;;;;;;;5.00;65.98;96418.25;5074520;28;20783;-36
2022/03/04 07:02:23;;;;;;;39.60;20.83;;;;;;;4.99;65.73;96427.13;5074107;28;20458;-39
2022/03/04 07:04:50;;;;;;;31.03;17.47;;;;;;;4.99;65.31;96424.50;5074311;28;20499;-37
2022/03/04 07:07:17;;;;;;;29.80;14.30;;;;;;;5.01;64.94;96431.19;5074375;28;20569;-39
2022/03/04 07:09:44;;;;;;;23.37;11.23;;;;;;;4.99;64.17;96417.44;5073950;28;20448;-37
2022/03/04 07:12:12;;;;;;;36.87;17.83;;;;;;;5.00;63.73;96434.81;5074064;28;20440;-37
2022/03/04 07:14:40;;;;;;;22.27;13.80;;;;;;;4.99;63.89;96420.06;5073885;28;20440;-37
2022/03/04 07:17:07;;;;;;;30.60;15.87;;;;;;;5.01;62.47;96430.38;5073944;28;20795;-38
2022/03/04 07:19:35;;;;;;;21.67;13.10;;;;;;;5.01;61.76;96425.09;5074184;28;20440;-37
2022/03/04 07:22:02;;;;;;;18.67;11.47;;;;;;;5.01;61.51;96431.19;5074144;28;20448;-38
2022/03/04 07:24:29;;;;;;;21.13;13.23;;;;;;;5.02;61.32;96437.25;5073681;28;20487;-37
2022/03/04 07:26:58;;;;;;;22.33;13.97;;;;;;;5.05;61.08;96435.00;5073639;28;20446;-37
2022/03/04 07:29:25;;;;;;;21.70;14.10;;;;;;;5.10;60.72;96440.44;5073722;28;20444;-37
2022/03/04 07:31:55;;;;;;;32.87;17.30;;;;;;;5.15;59.08;96437.19;5073931;28;20462;-38
2022/03/04 07:34:22;;;;;;;30.17;16.43;;;;;;;5.22;58.11;96437.94;5089467;28;20504;-37
2022/03/04 07:36:50;;;;;;;45.80;24.70;;;;;;;5.24;57.05;96430.66;5090934;28;20462;-37
2022/03/04 07:39:17;;;;;;;38.60;19.10;;;;;;;5.38;57.69;96446.38;5088199;28;20447;-37
2022/03/04 07:41:44;;;;;;;30.73;19.87;;;;;;;5.47;57.85;96445.13;5093464;28;20443;-39
2022/03/04 07:44:12;;;;;;;29.73;18.30;;;;;;;5.54;57.78;96451.13;5073355;28;20487;-38
2022/03/04 07:46:39;;;;;;;17.00;8.40;;;;;;;5.61;57.00;96448.47;5089802;28;20447;-38
2022/03/04 07:49:08;;;;;;;11.83;8.30;;;;;;;5.46;57.09;96423.25;5093657;28;20450;-38
2022/03/04 07:51:35;;;;;;;10.57;7.50;;;;;;;5.54;57.13;96446.66;5093523;28;20986;-37
2022/03/04 07:54:03;;;;;;;17.30;8.57;;;;;;;5.50;57.42;96439.41;5093640;28;20442;-38
2022/03/04 07:56:30;;;;;;;13.30;8.67;;;;;;;5.46;57.61;96444.31;5093673;28;20934;-38
2022/03/04 07:58:57;;;;;;;13.23;9.33;;;;;;;5.60;57.83;96439.75;5093431;28;20448;-38
2022/03/04 08:01:25;;;;;;;16.40;9.50;;;;;;;5.80;57.03;96442.25;5093498;28;20439;-37
2022/03/04 08:03:52;;;;;;;19.20;10.17;;;;;;;6.04;56.71;96442.50;5093435;28;20454;-37
2022/03/04 08:06:20;;;;;;;16.13;8.97;;;;;;;6.17;56.24;96452.13;5093508;28;20454;-37
2022/03/04 08:08:48;;;;;;;16.03;9.47;;;;;;;6.08;56.89;96447.09;5093506;28;20443;-38
2022/03/04 08:11:15;;;;;;;17.30;8.63;;;;;;;6.24;57.00;96455.50;5093800;28;20443;-38
2022/03/04 08:13:42;;;;;;;15.63;10.77;;;;;;;6.32;57.48;96452.56;5093377;28;20485;-37
2022/03/04 08:16:10;;;;;;;27.90;12.10;;;;;;;6.50;59.07;96443.91;5093747;28;20447;-37
2022/03/04 08:18:37;;;;;;;24.50;11.90;;;;;;;6.78;58.12;96455.78;5093680;28;20917;-37
2022/03/04 08:21:04;;;;;;;24.00;11.17;;;;;;;6.95;56.96;96454.97;5093429;28;20519;-37
2022/03/04 08:23:33;;;;;;;30.03;14.80;;;;;;;7.14;55.71;96460.22;5093401;28;20504;-37
2022/03/04 08:26:03;;;;;;;50.03;23.37;;;;;;;7.15;55.59;96456.56;5094092;28;20490;-37
2022/03/04 08:28:32;;;;;;;21.73;12.83;;;;;;;7.30;55.37;96462.25;5092718;28;20533;-37
2022/03/04 08:30:59;;;;;;;46.10;23.43;;;;;;;7.46;55.62;96467.94;5093130;28;20957;-38
2022/03/04 08:33:27;;;;;;;26.40;12.70;;;;;;;7.63;55.01;96458.34;5093233;28;20442;-38
2022/03/04 08:35:54;;;;;;;16.50;10.70;;;;;;;7.69;54.09;96468.00;5093449;28;20439;-38
2022/03/04 08:38:21;;;;;;;32.10;14.47;;;;;;;7.78;53.71;96471.94;5093158;28;20439;-38
2022/03/04 08:40:50;;;;;;;28.70;15.53;;;;;;;7.86;54.23;96462.88;5093099;28;20442;-38
2022/03/04 08:43:18;;;;;;;13.33;9.90;;;;;;;7.79;53.96;96473.56;5093113;28;20455;-38
2022/03/04 08:45:45;;;;;;;25.07;11.60;;;;;;;7.69;53.25;96468.00;5093044;28;20487;-37
2022/03/04 08:48:13;;;;;;;20.13;12.07;;;;;;;7.74;53.65;96464.69;5092883;28;20508;-38
2022/03/04 08:50:40;;;;;;;15.77;10.07;;;;;;;7.77;52.49;96465.06;5092582;28;20577;-38
2022/03/04 08:53:07;;;;;;;24.47;10.80;;;;;;;7.69;50.13;96460.09;5091590;28;20815;-38
2022/03/04 08:55:34;;;;;;;43.37;21.67;;;;;;;7.73;51.69;96452.53;5093444;28;20496;-37
2022/03/04 08:58:03;;;;;;;24.33;13.27;;;;;;;7.91;51.36;96456.91;5093071;28;20450;-37
2022/03/04 09:00:32;;;;;;;27.97;15.23;;;;;;;8.17;50.69;96447.75;5093027;28;20438;-37
2022/03/04 09:02:59;;;;;;;25.97;15.70;;;;;;;8.43;51.59;96456.28;5093307;28;20450;-37
2022/03/04 09:05:26;;;;;;;20.07;11.70;;;;;;;8.50;52.64;96441.94;5092808;28;21023;-37
2022/03/04 09:07:54;;;;;;;54.17;23.90;;;;;;;8.59;47.62;96453.75;5093274;28;20801;-37
2022/03/04 09:10:21;;;;;;;43.10;21.77;;;;;;;8.59;49.80;96461.69;5093252;28;20525;-37
2022/03/04 09:12:48;;;;;;;38.60;19.70;;;;;;;8.63;50.86;96450.66;5096346;28;20531;-37
2022/03/04 09:15:17;;;;;;;35.67;18.10;;;;;;;8.50;48.80;96449.88;5096617;28;20447;-37
2022/03/04 09:17:44;;;;;;;33.20;16.93;;;;;;;8.61;50.48;96459.63;5096813;28;20439;-37
2022/03/04 09:20:14;;;;;;;25.57;15.20;;;;;;;8.86;49.35;96463.84;5096559;28;20447;-39
2022/03/04 09:22:42;;;;;;;17.40;12.63;;;;;;;9.10;49.56;96461.13;5096770;28;20470;-37
2022/03/04 09:25:10;;;;;;;50.57;24.40;;;;;;;9.38;46.33;96461.19;5096302;28;20486;-37
2022/03/04 09:27:37;;;;;;;25.93;13.03;;;;;;;9.51;47.01;96456.66;5096318;28;20807;-38
2022/03/04 09:30:05;;;;;;;26.30;14.27;;;;;;;9.62;46.64;96466.38;5096604;28;20454;-38
2022/03/04 09:32:34;;;;;;;20.37;12.37;;;;;;;9.82;46.95;96461.41;5096311;28;20534;-38
2022/03/04 09:35:01;;;;;;;22.10;13.57;;;;;;;9.99;43.37;96473.91;5096214;28;20513;-38
2022/03/04 09:37:29;;;;;;;29.70;16.63;;;;;;;10.12;44.26;96462.97;5096482;28;20850;-37
2022/03/04 09:39:56;;;;;;;31.80;18.33;;;;;;;10.14;42.57;96460.88;5096045;28;20446;-37
2022/03/04 09:42:23;;;;;;;29.53;17.13;;;;;;;10.07;42.93;96462.91;5096052;28;20448;-37
2022/03/04 09:44:51;;;;;;;27.00;14.03;;;;;;;10.02;42.12;96457.50;5093437;28;20483;-37
2022/03/04 09:47:22;;;;;;;23.90;13.97;;;;;;;9.89;42.44;96463.13;5075404;28;20448;-37
2022/03/04 09:49:52;;;;;;;35.80;17.87;;;;;;;9.69;42.29;96459.06;5075609;28;20435;-37
2022/03/04 09:52:20;;;;;;;23.90;13.80;;;;;;;9.38;41.67;96447.94;5075325;28;20532;-36
2022/03/04 09:54:49;;;;;;;24.80;15.50;;;;;;;9.33;42.81;96453.13;5075823;28;20850;-37
2022/03/04 09:57:17;;;;;;;32.70;16.80;;;;;;;9.24;42.51;96441.28;5075749;28;20470;-37
2022/03/04 09:59:44;;;;;;;23.93;14.20;;;;;;;9.55;44.64;96449.81;5075523;28;20951;-37
2022/03/04 10:02:13;;;;;;;33.33;19.27;;;;;;;9.59;44.75;96449.13;5075696;28;20444;-37
2022/03/04 10:04:41;;;;;;;43.53;26.87;;;;;;;9.72;43.66;96447.19;5075513;28;20507;-38
2022/03/04 10:07:13;;;;;;;30.23;13.07;;;;;;;9.83;44.30;96433.88;5076158;28;20444;-37
2022/03/04 10:09:43;;;;;;;28.77;16.97;;;;;;;9.88;43.39;96440.31;5075209;28;20949;-37
2022/03/04 10:12:14;;;;;;;32.17;18.50;;;;;;;9.84;42.83;96440.78;5075254;28;20448;-37
2022/03/04 10:14:58;;;;;;;35.00;15.23;;;;;;;9.93;44.51;96438.53;5075099;28;20438;-38
2022/03/04 10:17:25;;;;;;;18.57;9.67;;;;;;;9.83;40.37;96431.22;5075381;28;20443;-37
2022/03/04 10:19:53;;;;;;;23.00;13.20;;;;;;;9.91;43.25;96423.91;5075026;28;20444;-37
2022/03/04 10:22:23;;;;;;;19.23;12.43;;;;;;;9.93;41.85;96427.13;5074586;28;20444;-37
2022/03/04 10:24:50;;;;;;;34.10;18.93;;;;;;;9.91;43.49;96431.88;5075103;28;20533;-37
2022/03/04 10:27:18;;;;;;;33.20;17.00;;;;;;;10.00;43.33;96422.44;5074857;28;20440;-37
2022/03/04 10:29:48;;;;;;;30.77;13.90;;;;;;;10.11;45.37;96432.19;5075122;28;20444;-37
2022/03/04 10:32:19;;;;;;;23.30;11.20;;;;;;;9.99;42.42;96420.84;5075104;28;20447;-37
2022/03/04 10:34:48;;;;;;;20.17;11.87;;;;;;;9.95;42.39;96430.34;5074799;28;20432;-37
2022/03/04 10:37:18;;;;;;;24.60;12.63;;;;;;;9.97;43.94;96428.25;5085852;28;20496;-37
2022/03/04 10:40:02;;;;;;;27.20;17.77;;;;;;;9.88;44.97;96421.75;5094958;28;20437;-37
2022/03/04 10:42:51;;;;;;;18.03;10.83;;;;;;;9.98;42.57;96420.06;5095270;28;20522;-37
2022/03/04 10:45:22;;;;;;;30.47;13.43;;;;;;;9.98;43.03;96419.22;5091904;28;20489;-37
2022/03/04 10:47:52;;;;;;;18.40;11.80;;;;;;;9.75;41.95;96399.81;5095192;28;20427;-36
2022/03/04 10:50:26;;;;;;;18.40;12.00;;;;;;;9.82;43.50;96411.03;5094994;28;20475;-36
2022/03/04 10:53:01;;;;;;;40.20;14.50;;;;;;;9.80;41.51;96410.47;5094747;28;20443;-36
2022/03/04 10:55:36;;;;;;;28.00;14.40;;;;;;;9.77;44.47;96403.00;5094669;28;20513;-36
2022/03/04 10:58:05;;;;;;;23.20;10.77;;;;;;;9.73;42.92;96409.84;5094965;28;20431;-37
2022/03/04 11:00:35;;;;;;;20.00;11.67;;;;;;;9.60;39.96;96404.84;5094814;28;20435;-37
2022/03/04 11:03:05;;;;;;;25.40;11.80;;;;;;;9.48;41.73;96382.91;5094898;28;20906;-37
2022/03/04 11:05:33;;;;;;;24.33;12.90;;;;;;;9.76;42.60;96396.09;5094380;28;20482;-37
2022/03/04 11:08:00;;;;;;;41.70;14.70;;;;;;;9.86;41.65;96400.78;5094385;28;20443;-36
2022/03/04 11:10:27;;;;;;;16.00;10.93;;;;;;;9.87;43.83;96396.25;5094687;28;20443;-37
2022/03/04 11:12:56;;;;;;;21.43;11.73;;;;;;;9.93;43.76;96390.78;5094624;28;20923;-37
2022/03/04 11:15:25;;;;;;;27.33;13.00;;;;;;;9.84;39.99;96389.59;5094314;28;20447;-37
2022/03/04 11:17:53;;;;;;;42.97;14.33;;;;;;;9.76;44.65;96364.28;5094210;28;20442;-37
2022/03/04 11:20:21;;;;;;;42.50;18.23;;;;;;;9.79;42.30;96379.72;5094261;28;20446;-37
2022/03/04 11:22:53;;;;;;;20.57;12.30;;;;;;;9.89;43.18;96373.75;5094486;28;20446;-37
2022/03/04 11:25:22;;;;;;;19.37;10.40;;;;;;;10.02;44.77;96376.09;5094421;28;20828;-37
2022/03/04 11:27:52;;;;;;;22.10;13.03;;;;;;;10.06;44.20;96373.75;5094408;28;20977;-37
2022/03/04 11:30:41;;;;;;;46.33;19.10;;;;;;;10.16;45.49;96375.75;5094372;28;20435;-37